Stevens Point, WI (54492)

8:45 AM CST on January 25, 2015 (GMT -0600)
APRSWXNET Whiting WI US | Change Station
CLOSE
Current Station
Personal Weather Station
Location: Stevens Point, WI
Elevation: 1082 ft
Nearby Weather Stations

Elev 1082 ft 44.50 °N, 89.56 °W | Updated 55 minutes ago

Overcast
Overcast
22 °F
Feels Like 22 °F
N
2
Wind Variable Wind from NE
Gusts 4.0 mph

Today
High -- | Low -- °F
--% Chance of Precip.
Yesterday
High -- | Low -- °F
Precip. -- in
7:24 AM 4:57 PM
Waxing Crescent, 33% visible
Pressure 29.94 in
Visibility 10.0 miles
Clouds Overcast 2100 ft
Windchill 22 °F
Dew Point 10 °F
Humidity 60%
Rainfall -999.00 in
Snow Depth Not available.
UV 0 out of 12
Pollen .10 out of 12
Air Quality Not available.
Flu Activity Not available.
METAR KSTE 251435Z AUTO 08010G15KT 10SM OVC021 M09/M12 A2994 RMK AO2 T10861123

More Conditions Fewer Conditions

Pressure 29.94 in
Visibility 10.0 miles
Clouds Overcast 2100 ft
Windchill 22 °F
Dew Point 10 °F
Humidity 60%
Rainfall -999.00 in
Snow Depth Not available.
UV 0 out of 12
Pollen .10 out of 12
Air Quality Not available.
Flu Activity Not available.
METAR KSTE 251435Z AUTO 08010G15KT 10SM OVC021 M09/M12 A2994 RMK AO2 T10861123

More Conditions Fewer Conditions

10-Day Weather Forecast

Almanac

Astronomy

Jan. 25, 2015 Rise Set
Actual Time
Civil Twilight
Nautical Twilight
Astronomical Twilight
Moon
Length of Visible Light
Length of Day
Tomorrow will be .
, % of the Moon is Illuminated

Today's Extremes

State Highs State Lows

Community

WunderPhotos

Upload Photos

1,789,899 photos uploaded!

WunderBlogs® & News

Nearby

Air Quality

  Air Quality AQ Index Pollutant
Not available.

Snow Depth

Station Depth Elevation

Earthquake Activity

City Distance Mag. Time & Date
Minimum magnitude displayed is 2.5.

Coastal Water Temperatures

Place Temperature

Nearby Weather Stations